createdAt,value
2017-12-05T00:01:49.798Z,37.93
2017-12-05T00:04:18.814Z,40.30
2017-12-05T00:06:47.043Z,26.37
2017-12-05T00:09:15.277Z,31.43
2017-12-05T00:11:43.496Z,21.23
2017-12-05T00:14:11.737Z,46.60
2017-12-05T00:16:39.975Z,38.77
2017-12-05T00:19:09.000Z,45.53
2017-12-05T00:21:37.246Z,61.20
2017-12-05T00:24:05.502Z,51.10
2017-12-05T00:26:34.516Z,22.30
2017-12-05T00:29:03.501Z,24.00
2017-12-05T00:31:32.509Z,21.07
2017-12-05T00:34:00.734Z,25.90
2017-12-05T00:36:28.995Z,37.50
2017-12-05T00:38:57.201Z,31.70
2017-12-05T00:41:25.531Z,27.13
2017-12-05T00:43:53.746Z,22.07
2017-12-05T00:46:22.774Z,42.97
2017-12-05T00:48:51.007Z,22.53
2017-12-05T00:51:19.273Z,16.90
2017-12-05T00:53:47.519Z,30.97
2017-12-05T00:56:16.003Z,36.80
2017-12-05T00:58:44.225Z,19.70
2017-12-05T01:01:12.482Z,19.57
2017-12-05T01:03:40.731Z,20.50
2017-12-05T01:06:08.982Z,17.10
2017-12-05T01:08:37.240Z,37.07
2017-12-05T01:11:06.234Z,26.97
2017-12-05T01:13:34.532Z,32.00
2017-12-05T01:16:02.762Z,42.80
2017-12-05T01:18:31.052Z,33.40
2017-12-05T01:20:59.266Z,38.50
2017-12-05T01:23:27.478Z,36.27
2017-12-05T01:25:56.535Z,19.33
2017-12-05T01:28:24.762Z,39.30
2017-12-05T01:30:53.772Z,36.67
2017-12-05T01:33:22.759Z,29.33
2017-12-05T01:35:51.786Z,40.80
2017-12-05T01:38:20.005Z,35.40
2017-12-05T01:40:48.280Z,34.37
2017-12-05T01:43:16.501Z,44.03
2017-12-05T01:45:44.769Z,38.07
2017-12-05T01:48:13.006Z,27.07
2017-12-05T01:50:42.011Z,25.53
2017-12-05T01:53:11.015Z,26.10
2017-12-05T01:55:39.252Z,28.20
2017-12-05T01:58:07.474Z,46.30
2017-12-05T02:00:42.417Z,35.73
2017-12-05T02:03:10.880Z,40.53
2017-12-05T02:05:39.874Z,46.73
2017-12-05T02:08:08.131Z,30.93
2017-12-05T02:10:37.118Z,34.07
2017-12-05T02:13:05.363Z,33.70
2017-12-05T02:15:33.590Z,34.20
2017-12-05T02:18:01.832Z,37.70
2017-12-05T02:20:30.054Z,42.13
2017-12-05T02:22:58.289Z,26.27
2017-12-05T02:25:26.570Z,27.57
2017-12-05T02:27:54.758Z,36.43
2017-12-05T02:30:23.000Z,34.40
2017-12-05T02:32:51.236Z,34.40
2017-12-05T02:35:19.498Z,21.03
2017-12-05T02:37:47.724Z,26.60
2017-12-05T02:40:15.960Z,15.87
2017-12-05T02:42:44.178Z,20.77
2017-12-05T02:45:12.415Z,25.97
2017-12-05T02:47:40.676Z,29.33
2017-12-05T02:50:08.925Z,19.33
2017-12-05T02:52:37.150Z,38.20
2017-12-05T02:55:05.396Z,25.10
2017-12-05T02:57:34.370Z,26.87
2017-12-05T03:00:03.387Z,25.57
2017-12-05T03:02:31.611Z,38.03
2017-12-05T03:04:59.869Z,48.47
2017-12-05T03:07:28.381Z,24.93
2017-12-05T03:09:57.397Z,30.57
2017-12-05T03:12:25.627Z,41.50
2017-12-05T03:14:53.858Z,43.47
2017-12-05T03:17:22.090Z,40.27
2017-12-05T03:19:50.308Z,41.87
2017-12-05T03:22:19.486Z,39.53
2017-12-05T03:24:48.480Z,37.27
2017-12-05T03:27:17.481Z,35.13
2017-12-05T03:29:45.706Z,34.13
2017-12-05T03:32:13.942Z,39.80
2017-12-05T03:34:42.183Z,41.53
2017-12-05T03:37:10.413Z,19.70
2017-12-05T03:39:38.644Z,18.50
2017-12-05T03:42:07.659Z,22.67
2017-12-05T03:44:35.865Z,18.63
2017-12-05T03:47:04.089Z,17.97
2017-12-05T03:49:32.362Z,18.67
2017-12-05T03:52:01.386Z,21.20
2017-12-05T03:54:29.626Z,21.27
2017-12-05T03:56:58.607Z,30.40
2017-12-05T03:59:28.129Z,43.20
2017-12-05T04:01:56.347Z,39.27
2017-12-05T04:04:24.580Z,37.93
2017-12-05T04:06:53.678Z,36.63
2017-12-05T04:09:21.931Z,38.47
2017-12-05T04:11:50.289Z,35.80
2017-12-05T04:14:19.338Z,35.50
2017-12-05T04:16:47.791Z,32.43
2017-12-05T04:19:16.030Z,38.33
2017-12-05T04:21:44.289Z,41.03
2017-12-05T04:24:12.548Z,38.07
2017-12-05T04:26:40.810Z,24.83
2017-12-05T04:29:09.030Z,30.30
2017-12-05T04:31:37.277Z,36.03
2017-12-05T04:34:05.526Z,29.23
2017-12-05T04:36:33.784Z,56.40
2017-12-05T04:39:02.048Z,52.73
2017-12-05T04:41:31.088Z,47.20
2017-12-05T04:43:59.313Z,51.07
2017-12-05T04:46:27.540Z,43.80
2017-12-05T04:48:55.778Z,45.43
2017-12-05T04:51:24.157Z,45.00
2017-12-05T04:53:52.376Z,49.27
2017-12-05T04:56:20.621Z,45.27
2017-12-05T04:58:48.872Z,55.83
2017-12-05T05:01:17.886Z,57.30
2017-12-05T05:03:46.134Z,62.00
2017-12-05T05:06:15.143Z,56.10
2017-12-05T05:08:44.642Z,57.03
2017-12-05T05:11:13.643Z,56.40
2017-12-05T05:13:42.650Z,50.77
2017-12-05T05:16:10.901Z,52.30
2017-12-05T05:18:39.136Z,48.27
2017-12-05T05:21:07.379Z,47.20
2017-12-05T05:23:35.601Z,47.50
2017-12-05T05:26:03.845Z,50.63
2017-12-05T05:28:32.118Z,41.97
2017-12-05T05:31:00.346Z,45.30
2017-12-05T05:33:28.590Z,48.77
2017-12-05T05:35:56.894Z,51.70
2017-12-05T05:38:25.158Z,48.53
2017-12-05T05:40:53.399Z,53.97
2017-12-05T05:43:21.623Z,47.67
2017-12-05T05:45:49.911Z,47.87
2017-12-05T05:48:18.903Z,51.27
2017-12-05T05:50:47.929Z,49.70
2017-12-05T05:53:16.152Z,61.40
2017-12-05T05:55:45.170Z,64.27
2017-12-05T05:58:13.457Z,64.13
2017-12-05T06:00:41.747Z,47.97
2017-12-05T06:03:09.921Z,48.60
2017-12-05T06:05:38.170Z,53.00
2017-12-05T06:08:06.406Z,54.23
2017-12-05T06:10:34.683Z,71.33
2017-12-05T06:13:02.928Z,60.87
2017-12-05T06:15:31.168Z,56.13
2017-12-05T06:17:59.438Z,66.57
2017-12-05T06:20:27.684Z,57.37
2017-12-05T06:22:55.925Z,68.03
2017-12-05T06:25:25.019Z,59.83
2017-12-05T06:27:53.242Z,62.53
2017-12-05T06:30:22.290Z,62.13
2017-12-05T06:32:50.502Z,56.27
2017-12-05T06:35:18.738Z,49.10
2017-12-05T06:37:46.982Z,52.40
2017-12-05T06:40:15.233Z,49.87
2017-12-05T06:42:44.242Z,53.83
2017-12-05T06:45:12.482Z,54.27
2017-12-05T06:47:40.838Z,51.23
2017-12-05T06:50:09.090Z,54.90
2017-12-05T06:52:37.470Z,60.10
2017-12-05T06:55:06.456Z,61.07
2017-12-05T06:57:35.029Z,56.70
2017-12-05T07:00:03.287Z,63.03
2017-12-05T07:02:31.534Z,54.57
2017-12-05T07:04:59.776Z,51.80
2017-12-05T07:07:28.030Z,66.10
2017-12-05T07:09:56.302Z,64.87
2017-12-05T07:12:24.885Z,58.40
2017-12-05T07:14:53.128Z,54.77
2017-12-05T07:17:21.374Z,54.33
2017-12-05T07:19:49.640Z,65.57
2017-12-05T07:22:17.868Z,64.07
2017-12-05T07:24:46.566Z,69.03
2017-12-05T07:27:15.568Z,66.13
2017-12-05T07:29:44.044Z,66.30
2017-12-05T07:32:12.598Z,54.67
2017-12-05T07:34:40.838Z,49.33
2017-12-05T07:37:09.099Z,53.80
2017-12-05T07:39:37.653Z,49.27
2017-12-05T07:42:05.900Z,52.90
2017-12-05T07:44:34.170Z,49.67
2017-12-05T07:47:02.391Z,57.07
2017-12-05T07:49:30.960Z,55.07
2017-12-05T07:51:59.441Z,57.03
2017-12-05T07:54:27.747Z,42.87
2017-12-05T07:56:56.124Z,59.50
2017-12-05T07:59:24.381Z,61.13
2017-12-05T08:01:52.618Z,43.77
2017-12-05T08:04:20.858Z,41.67
2017-12-05T08:06:49.122Z,35.70
2017-12-05T08:09:17.497Z,20.57
2017-12-05T08:11:45.754Z,21.90
2017-12-05T08:14:13.982Z,20.80
2017-12-05T08:16:42.236Z,26.47
2017-12-05T08:19:10.471Z,25.30
2017-12-05T08:21:39.523Z,27.37
2017-12-05T08:24:07.759Z,23.03
2017-12-05T08:26:36.010Z,20.00
2017-12-05T08:29:04.222Z,21.90
2017-12-05T08:31:32.467Z,19.50
2017-12-05T08:34:01.460Z,21.40
2017-12-05T08:36:30.479Z,21.73
2017-12-05T08:38:58.716Z,24.07
2017-12-05T08:41:26.963Z,22.10
2017-12-05T08:43:55.214Z,25.47
2017-12-05T08:46:23.447Z,25.47
2017-12-05T08:48:51.701Z,21.33
2017-12-05T08:51:19.947Z,21.97
2017-12-05T08:53:48.198Z,35.00
2017-12-05T08:56:16.433Z,24.07
2017-12-05T08:58:45.451Z,22.97
2017-12-05T09:01:13.693Z,21.30
2017-12-05T09:03:41.950Z,21.47
2017-12-05T09:06:10.162Z,45.57
2017-12-05T09:08:39.170Z,25.07
2017-12-05T09:11:07.444Z,24.30
2017-12-05T09:13:35.696Z,22.83
2017-12-05T09:16:03.942Z,22.53
2017-12-05T09:18:32.171Z,22.87
2017-12-05T09:21:00.413Z,20.53
2017-12-05T09:23:28.704Z,21.80
2017-12-05T09:25:57.005Z,21.30
2017-12-05T09:28:25.288Z,22.87
2017-12-05T09:30:53.639Z,25.50
2017-12-05T09:33:21.886Z,26.33
2017-12-05T09:35:50.154Z,25.20
2017-12-05T09:38:18.363Z,28.50
2017-12-05T09:40:46.622Z,24.97
2017-12-05T09:43:14.873Z,28.67
2017-12-05T09:45:43.130Z,28.07
2017-12-05T09:48:11.673Z,33.60
2017-12-05T09:50:40.666Z,34.43
2017-12-05T09:53:08.914Z,29.10
2017-12-05T09:55:37.203Z,30.63
2017-12-05T09:58:06.203Z,31.60
2017-12-05T10:00:34.457Z,34.60
2017-12-05T10:03:03.478Z,33.37
2017-12-05T10:05:31.713Z,31.60
2017-12-05T10:07:59.953Z,31.53
2017-12-05T10:10:28.607Z,51.17
2017-12-05T10:12:57.598Z,33.70
2017-12-05T10:15:26.601Z,32.90
2017-12-05T10:17:55.077Z,34.40
2017-12-05T10:20:23.323Z,33.00
2017-12-05T10:22:51.593Z,33.47
2017-12-05T10:25:19.833Z,36.37
2017-12-05T10:27:48.066Z,34.63
2017-12-05T10:30:16.322Z,36.73
2017-12-05T10:32:44.558Z,36.10
2017-12-05T10:35:12.851Z,34.97
2017-12-05T10:37:41.849Z,32.40
2017-12-05T10:40:10.137Z,32.57
2017-12-05T10:42:38.523Z,39.57
2017-12-05T10:45:07.466Z,35.87
2017-12-05T10:47:35.722Z,35.90
2017-12-05T10:50:04.015Z,34.80
2017-12-05T10:52:32.567Z,35.83
2017-12-05T10:55:01.570Z,32.10
2017-12-05T10:57:29.914Z,36.27
2017-12-05T10:59:58.252Z,36.30
2017-12-05T11:02:26.595Z,33.93
2017-12-05T11:04:55.573Z,56.47
2017-12-05T11:07:24.574Z,53.63
2017-12-05T11:09:52.833Z,61.00
2017-12-05T11:12:21.885Z,64.40
2017-12-05T11:14:50.120Z,62.13
2017-12-05T11:17:18.378Z,37.43
2017-12-05T11:19:47.394Z,56.33
2017-12-05T11:22:15.655Z,85.10
2017-12-05T11:24:43.910Z,70.47
2017-12-05T11:27:12.933Z,75.60
2017-12-05T11:29:41.196Z,87.83
2017-12-05T11:32:09.466Z,73.00
2017-12-05T11:34:37.728Z,68.17
2017-12-05T11:37:06.026Z,70.60
2017-12-05T11:39:34.306Z,70.00
2017-12-05T11:42:02.560Z,69.23
2017-12-05T11:44:31.886Z,69.17
2017-12-05T11:47:00.266Z,68.00
2017-12-05T11:49:28.490Z,71.53
2017-12-05T11:51:56.745Z,71.43
2017-12-05T11:54:24.997Z,62.53
2017-12-05T11:56:53.263Z,67.33
2017-12-05T11:59:21.510Z,66.73
2017-12-05T12:01:49.906Z,60.60
2017-12-05T12:04:18.148Z,68.73
2017-12-05T12:06:46.406Z,56.13
2017-12-05T12:09:14.676Z,56.17
2017-12-05T12:11:42.927Z,60.67
2017-12-05T12:14:11.721Z,62.67
2017-12-05T12:16:40.100Z,62.93
2017-12-05T12:19:09.129Z,57.63
2017-12-05T12:21:37.430Z,61.53
2017-12-05T12:24:06.507Z,59.90
2017-12-05T12:26:34.776Z,58.17
2017-12-05T12:29:03.013Z,64.07
2017-12-05T12:31:31.258Z,57.97
2017-12-05T12:33:59.501Z,29.17
2017-12-05T12:36:28.560Z,32.20
2017-12-05T12:38:56.848Z,29.20
2017-12-05T12:41:25.150Z,32.37
2017-12-05T12:43:53.403Z,30.77
2017-12-05T12:46:21.670Z,65.10
2017-12-05T12:48:49.941Z,59.03
2017-12-05T12:51:18.174Z,59.10
2017-12-05T12:53:47.189Z,59.47
2017-12-05T12:56:15.435Z,58.43
2017-12-05T12:58:44.560Z,61.67
2017-12-05T13:01:12.786Z,52.30
2017-12-05T13:03:41.034Z,58.07
2017-12-05T13:06:09.323Z,61.93
2017-12-05T13:08:37.583Z,67.23
2017-12-05T13:11:05.839Z,64.03
2017-12-05T13:13:34.084Z,65.17
2017-12-05T13:16:03.099Z,66.00
2017-12-05T13:18:31.689Z,60.70
2017-12-05T13:20:59.946Z,71.20
2017-12-05T13:23:28.962Z,62.60
2017-12-05T13:25:57.234Z,67.50
2017-12-05T13:28:25.495Z,67.63
2017-12-05T13:30:53.787Z,64.33
2017-12-05T13:33:22.042Z,63.20
2017-12-05T13:35:51.352Z,61.03
2017-12-05T13:38:19.599Z,75.50
2017-12-05T13:40:48.647Z,68.53
2017-12-05T13:43:16.878Z,70.10
2017-12-05T13:45:45.912Z,73.73
2017-12-05T13:48:14.154Z,74.37
2017-12-05T13:50:42.398Z,63.30
2017-12-05T13:53:10.646Z,63.73
2017-12-05T13:55:39.100Z,72.03
2017-12-05T13:58:07.322Z,81.13
2017-12-05T14:00:35.955Z,70.57
2017-12-05T14:03:04.432Z,80.53
2017-12-05T14:05:32.686Z,79.80
2017-12-05T14:08:01.092Z,76.07
2017-12-05T14:10:29.382Z,67.37
2017-12-05T14:12:57.638Z,77.10
2017-12-05T14:15:25.895Z,72.03
2017-12-05T14:17:54.189Z,79.90
2017-12-05T14:20:22.460Z,69.07
2017-12-05T14:22:50.720Z,74.67
2017-12-05T14:25:19.326Z,66.23
2017-12-05T14:27:47.566Z,72.57
2017-12-05T14:30:15.815Z,72.60
2017-12-05T14:32:44.059Z,72.30
2017-12-05T14:35:12.326Z,72.80
2017-12-05T14:37:40.599Z,68.67
2017-12-05T14:40:09.594Z,74.80
2017-12-05T14:42:37.874Z,78.40
2017-12-05T14:45:06.675Z,79.30
2017-12-05T14:47:34.958Z,77.70
2017-12-05T14:50:03.298Z,73.07
2017-12-05T14:52:31.563Z,79.03
2017-12-05T14:55:00.803Z,92.80
2017-12-05T14:57:29.064Z,84.00
2017-12-05T14:59:57.313Z,78.07
2017-12-05T15:02:26.341Z,73.63
2017-12-05T15:04:54.616Z,75.43
2017-12-05T15:07:22.862Z,68.00
2017-12-05T15:09:51.119Z,78.10
2017-12-05T15:12:20.160Z,71.40
2017-12-05T15:14:48.400Z,69.40
2017-12-05T15:17:16.673Z,69.50
2017-12-05T15:19:45.689Z,71.53
2017-12-05T15:22:13.988Z,66.10
2017-12-05T15:24:42.206Z,54.70
2017-12-05T15:27:10.450Z,63.93
2017-12-05T15:29:38.706Z,74.30
2017-12-05T15:32:06.954Z,70.00
2017-12-05T15:34:35.962Z,77.20
2017-12-05T15:37:05.035Z,87.90
2017-12-05T15:39:34.054Z,72.47
2017-12-05T15:42:02.405Z,82.67
2017-12-05T15:44:31.413Z,79.37
2017-12-05T15:47:00.411Z,82.13
2017-12-05T15:49:28.658Z,68.17
2017-12-05T15:51:56.890Z,63.80
2017-12-05T15:54:26.084Z,69.20
2017-12-05T15:56:54.320Z,74.97
2017-12-05T15:59:22.569Z,75.97
2017-12-05T16:01:50.806Z,65.83
2017-12-05T16:04:19.057Z,71.37
2017-12-05T16:06:47.298Z,67.40
2017-12-05T16:09:16.361Z,69.27
2017-12-05T16:11:44.593Z,79.30
2017-12-05T16:14:12.864Z,94.13
2017-12-05T16:16:41.873Z,86.30
2017-12-05T16:19:10.102Z,110.60
2017-12-05T16:21:38.388Z,75.27
2017-12-05T16:24:06.668Z,54.67
2017-12-05T16:26:35.795Z,86.97
2017-12-05T16:29:04.110Z,71.93
2017-12-05T16:31:32.420Z,34.03
2017-12-05T16:34:00.784Z,54.60
2017-12-05T16:36:29.278Z,78.17
2017-12-05T16:38:57.605Z,69.93
2017-12-05T16:41:25.821Z,88.60
2017-12-05T16:43:54.097Z,79.00
2017-12-05T16:46:22.348Z,85.97
2017-12-05T16:48:50.624Z,93.17
2017-12-05T16:51:18.907Z,39.43
2017-12-05T16:53:47.143Z,70.37
2017-12-05T16:56:15.395Z,42.67
2017-12-05T16:58:44.699Z,38.10
2017-12-05T17:01:13.694Z,63.00
2017-12-05T17:03:41.942Z,41.53
2017-12-05T17:06:10.173Z,37.40
2017-12-05T17:08:38.444Z,39.53
2017-12-05T17:11:06.665Z,65.00
2017-12-05T17:13:34.983Z,65.10
2017-12-05T17:16:03.977Z,74.90
2017-12-05T17:18:32.272Z,39.17
2017-12-05T17:21:00.546Z,51.03
2017-12-05T17:23:28.781Z,44.33
2017-12-05T17:25:57.786Z,65.43
2017-12-05T17:28:26.159Z,80.87
2017-12-05T17:30:54.386Z,61.07
2017-12-05T17:33:22.623Z,74.03
2017-12-05T17:35:50.874Z,74.80
2017-12-05T17:38:19.980Z,72.00
2017-12-05T17:40:48.247Z,64.77
2017-12-05T17:43:17.349Z,73.47
2017-12-05T17:45:45.822Z,72.50
2017-12-05T17:48:14.082Z,84.10
2017-12-05T17:50:43.098Z,67.20
2017-12-05T17:53:11.346Z,67.33
2017-12-05T17:55:39.622Z,75.07
2017-12-05T17:58:08.652Z,103.60
2017-12-05T18:00:36.887Z,86.23
2017-12-05T18:03:05.918Z,96.10
2017-12-05T18:05:34.971Z,87.67
2017-12-05T18:08:04.005Z,73.47
2017-12-05T18:10:32.259Z,79.90
2017-12-05T18:13:00.603Z,84.57
2017-12-05T18:15:28.851Z,101.13
2017-12-05T18:17:57.717Z,68.97
2017-12-05T18:20:26.190Z,60.33
2017-12-05T18:22:54.510Z,64.60
2017-12-05T18:25:22.768Z,82.10
2017-12-05T18:27:51.027Z,71.23
2017-12-05T18:30:19.267Z,64.13
2017-12-05T18:32:48.296Z,81.93
2017-12-05T18:35:16.546Z,52.03
2017-12-05T18:37:44.799Z,57.40
2017-12-05T18:40:13.846Z,57.73
2017-12-05T18:42:42.102Z,87.13
2017-12-05T18:45:10.369Z,85.90
2017-12-05T18:47:38.630Z,70.40
2017-12-05T18:50:07.682Z,99.93
2017-12-05T18:52:35.929Z,80.70
2017-12-05T18:55:04.419Z,81.67
2017-12-05T18:57:33.486Z,113.83
2017-12-05T19:00:01.877Z,90.27
2017-12-05T19:02:30.879Z,81.17
2017-12-05T19:04:59.118Z,86.60
2017-12-05T19:07:28.139Z,79.13
2017-12-05T19:09:56.419Z,87.30
2017-12-05T19:12:24.664Z,55.53
2017-12-05T19:14:53.667Z,73.13
2017-12-05T19:17:21.911Z,85.13
2017-12-05T19:19:50.169Z,86.20
2017-12-05T19:22:18.495Z,83.80
2017-12-05T19:24:46.738Z,69.10
2017-12-05T19:27:14.995Z,71.43
2017-12-05T19:29:43.255Z,84.77
2017-12-05T19:32:11.499Z,56.90
2017-12-05T19:40:29.432Z,77.00
2017-12-05T19:42:57.721Z,65.27
2017-12-05T19:45:25.983Z,46.07
2017-12-05T19:47:54.229Z,54.63
2017-12-05T19:50:22.519Z,42.97
2017-12-05T19:52:50.780Z,65.57
2017-12-05T19:58:17.826Z,71.37
2017-12-05T20:00:46.835Z,38.03
2017-12-05T20:03:15.080Z,36.43
2017-12-05T20:05:44.074Z,48.10
2017-12-05T20:08:13.078Z,62.00
2017-12-05T20:10:41.326Z,56.90
2017-12-05T20:13:09.575Z,56.30
2017-12-05T20:15:37.803Z,36.80
2017-12-05T20:18:06.042Z,35.63
2017-12-05T20:20:34.309Z,55.80
2017-12-05T20:23:02.561Z,32.73
2017-12-05T20:25:30.773Z,54.50
2017-12-05T20:27:59.053Z,48.30
2017-12-05T20:30:28.056Z,33.43
2017-12-05T20:35:54.758Z,66.00
2017-12-05T20:38:23.014Z,32.23
2017-12-05T20:40:51.238Z,76.47
2017-12-05T20:43:19.516Z,80.97
2017-12-05T20:45:47.765Z,80.00
2017-12-05T20:48:16.038Z,32.50
2017-12-05T20:50:44.305Z,32.30
2017-12-05T20:53:12.553Z,34.40
2017-12-05T20:55:41.596Z,33.90
2017-12-05T20:58:10.630Z,79.40
2017-12-05T21:03:37.528Z,76.90
2017-12-05T21:06:06.953Z,75.17
2017-12-05T21:08:35.374Z,88.03
2017-12-05T21:11:04.380Z,78.23
2017-12-05T21:13:32.689Z,95.07
2017-12-05T21:16:01.009Z,86.27
2017-12-05T21:18:29.230Z,88.53
2017-12-05T21:20:57.502Z,86.40
2017-12-05T21:23:25.733Z,75.70
2017-12-05T21:25:54.774Z,84.30
2017-12-05T21:28:23.023Z,43.77
2017-12-05T21:30:51.311Z,51.60
2017-12-05T21:33:19.589Z,67.90
2017-12-05T21:35:48.743Z,84.40
2017-12-05T21:38:17.078Z,53.50
2017-12-05T21:40:45.332Z,66.37
2017-12-05T21:43:13.622Z,55.73
2017-12-05T21:48:39.336Z,51.97
2017-12-05T21:51:20.308Z,66.27
2017-12-05T21:56:46.685Z,52.03
2017-12-05T21:59:14.913Z,49.40
2017-12-05T22:01:43.189Z,67.67
2017-12-05T22:04:11.402Z,54.37
2017-12-05T22:06:39.649Z,68.83
2017-12-05T22:09:08.929Z,65.27
2017-12-05T22:11:38.085Z,61.63
2017-12-05T22:14:06.365Z,66.63
2017-12-05T22:16:34.618Z,62.13
2017-12-05T22:19:02.953Z,76.50
2017-12-05T22:21:31.147Z,65.40
2017-12-05T22:24:00.279Z,56.83
2017-12-05T22:26:28.551Z,63.00
2017-12-05T22:28:56.790Z,64.03
2017-12-05T22:31:25.865Z,70.07
2017-12-05T22:33:54.373Z,76.80
2017-12-05T22:36:23.388Z,25.20
2017-12-05T22:38:51.771Z,69.53
2017-12-05T22:41:19.997Z,62.23
2017-12-05T22:43:48.234Z,82.60
2017-12-05T22:46:16.476Z,78.50
2017-12-05T22:48:44.720Z,76.40
2017-12-05T22:51:13.009Z,78.27
2017-12-05T22:53:42.011Z,60.47
2017-12-05T22:56:11.011Z,79.63
2017-12-05T22:58:39.327Z,75.37
2017-12-05T23:01:07.870Z,62.57
2017-12-05T23:03:38.318Z,55.10
2017-12-05T23:06:09.384Z,58.13
2017-12-05T23:08:37.625Z,42.97
2017-12-05T23:11:05.875Z,44.40
2017-12-05T23:13:34.095Z,48.93
2017-12-05T23:16:02.295Z,47.27
2017-12-05T23:18:30.546Z,48.53
2017-12-05T23:20:58.810Z,45.93
2017-12-05T23:23:27.022Z,48.90
2017-12-05T23:25:56.053Z,49.20
2017-12-05T23:28:25.069Z,52.83
2017-12-05T23:30:53.297Z,56.03
2017-12-05T23:33:21.541Z,60.33
2017-12-05T23:35:50.569Z,49.90
2017-12-05T23:38:18.805Z,49.73
2017-12-05T23:40:47.032Z,82.97
2017-12-05T23:43:16.020Z,80.37
2017-12-05T23:45:44.245Z,56.90
2017-12-05T23:48:12.482Z,59.37
2017-12-05T23:50:40.746Z,58.07
2017-12-05T23:53:08.942Z,63.33
2017-12-05T23:55:37.158Z,62.03
2017-12-05T23:58:05.394Z,63.03
